Time;durP1;ratioP1;P1;durP2;ratioP2;P2;SDS_P1;SDS_P2;PMS_P1;PMS_P2;Temp;Humidity;BMP_temperature;BMP_pressure;BME280_temperature;BME280_humidity;BME280_pressure;Samples;Min_cycle;Max_cycle;Signal;HPM_P1;HPM_P2
2023/01/18 00:00:09;;;;;;;9.93;9.33;;;-2.40;99.90;;;;;;5011678;28;20231;-63
2023/01/18 00:02:35;;;;;;;10.20;9.50;;;-2.40;99.90;;;;;;5011667;28;20192;-63
2023/01/18 00:05:00;;;;;;;8.87;8.37;;;-2.50;99.90;;;;;;5012932;28;20196;-63
2023/01/18 00:07:26;;;;;;;8.47;8.07;;;-2.50;99.90;;;;;;5011845;28;20566;-63
2023/01/18 00:09:52;;;;;;;8.63;8.13;;;-2.50;99.90;;;;;;5028261;28;20728;-63
2023/01/18 00:12:18;;;;;;;8.67;8.03;;;-2.50;99.90;;;;;;5031483;28;20559;-63
2023/01/18 00:14:43;;;;;;;8.93;8.53;;;-2.50;99.90;;;;;;5015665;28;20257;-63
2023/01/18 00:17:09;;;;;;;9.03;8.43;;;-2.60;99.90;;;;;;5011624;28;20176;-63
2023/01/18 00:19:34;;;;;;;8.50;7.70;;;-2.50;99.90;;;;;;5024684;28;20179;-63
2023/01/18 00:22:00;;;;;;;8.97;8.57;;;-2.40;99.90;;;;;;5031377;28;20637;-64
2023/01/18 00:24:26;;;;;;;8.03;7.63;;;-2.30;99.90;;;;;;5019355;28;20574;-63
2023/01/18 00:26:52;;;;;;;8.57;8.07;;;-2.20;99.90;;;;;;5011787;28;20264;-63
2023/01/18 00:29:18;;;;;;;8.70;8.13;;;-2.10;99.90;;;;;;5021236;28;20313;-64
2023/01/18 00:31:44;;;;;;;10.10;9.20;;;-2.00;99.90;;;;;;5027299;28;20176;-63
2023/01/18 00:34:10;;;;;;;9.53;8.83;;;-2.00;99.90;;;;;;5016013;28;20537;-63
2023/01/18 00:36:35;;;;;;;9.00;8.60;;;-2.00;99.90;;;;;;5019417;28;20207;-63
2023/01/18 00:39:01;;;;;;;9.17;7.90;;;-1.90;99.90;;;;;;5035350;28;20206;-64
2023/01/18 00:41:27;;;;;;;8.83;8.30;;;-1.90;99.90;;;;;;5032681;28;20675;-63
2023/01/18 00:43:53;;;;;;;8.53;8.13;;;-1.90;99.90;;;;;;5034823;28;20739;-63
2023/01/18 00:46:24;;;;;;;7.40;7.10;;;-1.80;99.90;;;;;;5034758;28;20163;-63
2023/01/18 00:48:50;;;;;;;10.03;9.30;;;-1.80;99.90;;;;;;5014593;28;20203;-63
2023/01/18 00:51:20;;;;;;;8.40;7.90;;;-1.80;99.90;;;;;;5015349;28;20171;-63
2023/01/18 00:53:46;;;;;;;7.60;7.30;;;-1.80;99.90;;;;;;5034352;28;20548;-63
2023/01/18 00:56:18;;;;;;;7.73;7.33;;;-1.80;99.90;;;;;;5035028;28;20539;-63
2023/01/18 00:58:44;;;;;;;8.23;7.73;;;-1.80;99.90;;;;;;5016013;28;20207;-63
2023/01/18 01:01:10;;;;;;;8.63;7.93;;;-1.90;99.90;;;;;;5014975;28;20294;-63
2023/01/18 01:06:44;;;;;;;7.77;7.37;;;-2.00;99.90;;;;;;5035056;28;20270;-63
2023/01/18 01:09:28;;;;;;;9.23;8.63;;;-2.10;99.90;;;;;;4995154;28;20204;-63
2023/01/18 01:26:09;;;;;;;9.47;8.97;;;-2.60;99.90;;;;;;5026441;28;20186;-63
2023/01/18 01:28:39;;;;;;;9.83;8.83;;;-2.60;99.90;;;;;;5034180;28;20669;-63
2023/01/18 01:31:07;;;;;;;8.60;8.10;;;-2.70;99.90;;;;;;5021427;28;20367;-63
2023/01/18 01:33:34;;;;;;;9.90;9.30;;;-2.40;99.90;;;;;;5014359;28;20585;-63
2023/01/18 01:36:25;;;;;;;8.33;7.63;;;-2.30;99.90;;;;;;5025242;28;20661;-63
2023/01/18 01:38:52;;;;;;;7.80;7.40;;;-2.20;99.90;;;;;;5029475;28;20187;-63
2023/01/18 01:41:30;;;;;;;7.77;7.37;;;-2.30;99.90;;;;;;5020811;28;20184;-63
2023/01/18 01:43:58;;;;;;;8.37;7.73;;;-2.30;99.90;;;;;;5013504;28;20218;-61
2023/01/18 01:46:27;;;;;;;9.23;7.63;;;-2.20;99.90;;;;;;5033431;28;20180;-63
2023/01/18 01:49:11;;;;;;;8.33;7.93;;;-2.00;99.90;;;;;;5033876;28;20208;-63
2023/01/18 01:52:00;;;;;;;9.40;8.63;;;-2.00;99.90;;;;;;4994366;28;20655;-60
2023/01/18 01:54:46;;;;;;;7.90;7.50;;;-1.90;99.90;;;;;;4998081;28;20189;-62
2023/01/18 01:57:20;;;;;;;9.00;8.40;;;-1.80;99.90;;;;;;5033938;28;20685;-61
2023/01/18 01:59:50;;;;;;;9.13;8.30;;;-1.90;99.90;;;;;;5031076;28;20185;-64
2023/01/18 02:02:16;;;;;;;7.37;7.07;;;-2.10;99.90;;;;;;5033732;28;20548;-64
2023/01/18 02:04:44;;;;;;;8.30;7.90;;;-1.80;99.90;;;;;;5016901;28;20203;-64
2023/01/18 02:07:10;;;;;;;9.07;8.47;;;-1.70;99.90;;;;;;5013984;28;20176;-64
2023/01/18 02:09:36;;;;;;;7.87;7.37;;;-1.60;99.90;;;;;;5028118;28;20195;-63
2023/01/18 02:12:02;;;;;;;8.57;8.17;;;-1.50;99.90;;;;;;5033679;28;20175;-64
2023/01/18 02:14:29;;;;;;;7.97;7.67;;;-1.60;99.90;;;;;;5020054;28;20233;-64
2023/01/18 02:17:13;;;;;;;9.47;8.70;;;-1.60;99.90;;;;;;5013729;28;20176;-64
2023/01/18 02:20:09;;;;;;;10.93;9.67;;;-1.60;99.90;;;;;;5026998;28;20238;-63
2023/01/18 02:22:50;;;;;;;8.73;8.03;;;-1.70;99.90;;;;;;5031346;28;20329;-63
2023/01/18 02:25:39;;;;;;;7.93;7.60;;;-1.80;99.90;;;;;;5031859;28;20175;-63
2023/01/18 02:28:15;;;;;;;7.90;7.50;;;-1.90;99.90;;;;;;5032860;28;20261;-64
2023/01/18 02:30:56;;;;;;;7.97;7.57;;;-2.00;99.90;;;;;;5016464;28;20179;-63
2023/01/18 02:33:34;;;;;;;10.73;8.40;;;-2.00;99.90;;;;;;5013260;28;20589;-63
2023/01/18 02:36:02;;;;;;;8.07;7.73;;;-1.90;99.90;;;;;;5013239;28;20210;-64
2023/01/18 02:38:40;;;;;;;9.30;8.70;;;-1.90;99.90;;;;;;5013594;28;20176;-63
2023/01/18 02:41:09;;;;;;;8.23;7.57;;;-1.90;99.90;;;;;;5013139;28;20570;-63
2023/01/18 02:46:34;;;;;;;8.00;7.60;;;-1.90;99.90;;;;;;5032985;28;20182;-64
2023/01/18 02:49:09;;;;;;;9.20;8.20;;;-1.90;99.90;;;;;;5028339;28;20575;-64
2023/01/18 02:51:35;;;;;;;8.17;7.77;;;-1.90;99.90;;;;;;5014708;28;20262;-62
2023/01/18 02:54:05;;;;;;;8.37;7.97;;;-1.90;99.90;;;;;;5032195;28;20629;-64
2023/01/18 02:56:44;;;;;;;8.77;8.33;;;-2.00;99.90;;;;;;5031661;28;20175;-64
2023/01/18 02:59:20;;;;;;;9.53;8.90;;;-2.00;99.90;;;;;;5011727;28;20180;-64
2023/01/18 03:02:08;;;;;;;7.80;7.47;;;-2.10;99.90;;;;;;5029184;28;20179;-64
2023/01/18 03:04:38;;;;;;;10.30;8.07;;;-2.00;99.90;;;;;;5032460;28;20261;-64
2023/01/18 03:07:18;;;;;;;8.20;7.70;;;-2.00;99.90;;;;;;5013663;28;20180;-64
2023/01/18 03:09:44;;;;;;;9.03;8.43;;;-2.00;99.90;;;;;;5012048;28;20243;-64
2023/01/18 03:12:25;;;;;;;8.93;8.33;;;-2.00;99.90;;;;;;5013674;28;20200;-64
2023/01/18 03:14:54;;;;;;;8.20;7.80;;;-2.00;99.90;;;;;;5028169;28;20263;-64
2023/01/18 03:17:24;;;;;;;8.60;8.10;;;-2.00;99.90;;;;;;5032301;28;20225;-64
2023/01/18 03:20:03;;;;;;;8.13;7.73;;;-2.00;99.90;;;;;;5016503;28;20172;-63
2023/01/18 03:25:28;;;;;;;8.27;7.80;;;-2.00;99.90;;;;;;5012547;28;20271;-64
2023/01/18 03:33:43;;;;;;;7.80;7.40;;;-1.90;99.90;;;;;;5002082;28;20203;-63
2023/01/18 03:36:34;;;;;;;8.87;8.27;;;-1.80;99.90;;;;;;5031981;28;20186;-64
2023/01/18 03:39:07;;;;;;;9.03;8.50;;;-1.80;99.90;;;;;;5017289;28;20665;-63
2023/01/18 03:41:39;;;;;;;8.93;8.43;;;-1.90;99.90;;;;;;5027773;28;20206;-64
2023/01/18 03:44:17;;;;;;;8.67;8.20;;;-2.00;99.90;;;;;;5022624;28;20212;-63
2023/01/18 03:46:43;;;;;;;8.17;7.87;;;-2.00;99.90;;;;;;5017446;28;20639;-63
2023/01/18 03:49:10;;;;;;;8.43;8.03;;;-2.00;99.90;;;;;;5031508;28;20304;-64
2023/01/18 03:52:12;;;;;;;18.10;9.67;;;-2.10;99.90;;;;;;5027185;28;20180;-64
2023/01/18 03:55:09;;;;;;;7.70;7.40;;;-2.10;99.90;;;;;;5011964;28;20640;-64
2023/01/18 03:57:57;;;;;;;8.63;8.13;;;-2.20;99.90;;;;;;5022000;28;20294;-63
2023/01/18 04:00:23;;;;;;;7.63;7.27;;;-2.20;99.90;;;;;;5031454;28;20171;-64
2023/01/18 04:02:49;;;;;;;8.07;7.67;;;-2.30;99.90;;;;;;5018260;28;20331;-64
2023/01/18 04:05:16;;;;;;;7.90;7.40;;;-2.30;99.90;;;;;;5011349;28;20180;-64
2023/01/18 04:07:42;;;;;;;7.87;7.37;;;-2.30;99.90;;;;;;5022559;28;20184;-64
2023/01/18 04:10:08;;;;;;;8.93;8.33;;;-2.30;99.90;;;;;;5031108;28;20696;-64
2023/01/18 04:12:34;;;;;;;8.47;8.03;;;-2.30;99.90;;;;;;5021401;28;20259;-64
2023/01/18 04:15:01;;;;;;;7.60;7.30;;;-2.30;99.90;;;;;;5020034;28;20546;-64
2023/01/18 04:17:26;;;;;;;8.70;8.17;;;-2.20;99.90;;;;;;5031627;28;20172;-63
2023/01/18 04:19:52;;;;;;;8.33;7.93;;;-2.20;99.90;;;;;;5024573;28;20302;-63
2023/01/18 04:22:18;;;;;;;8.20;7.87;;;-2.10;99.90;;;;;;5011591;28;20231;-61
2023/01/18 04:24:43;;;;;;;8.80;8.13;;;-2.10;99.90;;;;;;5015685;28;20660;-63
2023/01/18 04:27:09;;;;;;;7.73;7.33;;;-2.10;99.90;;;;;;5031409;28;20176;-63
2023/01/18 04:29:35;;;;;;;12.87;11.57;;;-2.10;99.90;;;;;;5028026;28;20221;-62
2023/01/18 04:32:01;;;;;;;8.87;8.17;;;-1.80;99.90;;;;;;5011351;28;20573;-62
2023/01/18 04:34:26;;;;;;;9.90;8.93;;;-2.10;99.90;;;;;;5012220;28;20259;-63
2023/01/18 04:36:52;;;;;;;8.00;7.60;;;-2.10;99.90;;;;;;5031153;28;20255;-64
2023/01/18 04:39:18;;;;;;;8.83;8.27;;;-2.10;99.90;;;;;;5031016;28;20176;-64
2023/01/18 04:41:44;;;;;;;9.00;8.43;;;-2.10;99.90;;;;;;5010045;28;20187;-62
2023/01/18 04:44:11;;;;;;;9.17;8.60;;;-2.10;99.90;;;;;;5028180;28;20219;-64
2023/01/18 04:46:37;;;;;;;11.70;10.77;;;-2.10;99.90;;;;;;5031092;28;20226;-64
2023/01/18 04:49:04;;;;;;;11.77;7.30;;;-2.10;99.90;;;;;;5015470;28;20682;-64
2023/01/18 04:51:30;;;;;;;9.27;8.47;;;-2.10;99.90;;;;;;5011157;28;20179;-63
2023/01/18 04:53:57;;;;;;;11.53;8.50;;;-2.10;99.90;;;;;;5025090;28;20203;-64
2023/01/18 04:56:23;;;;;;;8.93;8.50;;;-2.10;99.90;;;;;;5031047;28;20183;-64
2023/01/18 04:58:52;;;;;;;9.30;8.77;;;-2.00;99.90;;;;;;5017014;28;20192;-64
2023/01/18 05:01:18;;;;;;;9.10;8.60;;;-2.00;99.90;;;;;;5010923;28;20187;-64
2023/01/18 05:03:44;;;;;;;8.73;8.23;;;-2.00;99.90;;;;;;5021937;28;20219;-64
2023/01/18 05:06:12;;;;;;;9.77;9.17;;;-1.90;99.90;;;;;;5030951;28;20182;-62
2023/01/18 05:08:39;;;;;;;9.83;9.07;;;-1.90;99.90;;;;;;5020751;28;20208;-64
2023/01/18 05:11:08;;;;;;;10.00;9.50;;;-1.80;99.90;;;;;;5018665;28;20645;-64
2023/01/18 05:13:33;;;;;;;12.23;11.37;;;-1.80;99.90;;;;;;5030729;28;20192;-64
2023/01/18 05:16:00;;;;;;;9.37;8.63;;;-1.80;99.90;;;;;;5024109;28;20191;-64
2023/01/18 05:18:26;;;;;;;9.43;8.63;;;-1.80;99.90;;;;;;5014246;28;20164;-63
2023/01/18 05:20:51;;;;;;;9.47;8.87;;;-1.80;99.90;;;;;;5015095;28;20180;-63
2023/01/18 05:23:17;;;;;;;10.77;10.17;;;-1.70;99.90;;;;;;5015873;28;20287;-64
2023/01/18 05:25:43;;;;;;;9.43;8.83;;;-1.70;99.90;;;;;;5014735;28;20195;-64
2023/01/18 05:28:09;;;;;;;11.73;10.83;;;-1.70;99.90;;;;;;5019055;28;20190;-63
2023/01/18 05:30:40;;;;;;;12.37;11.67;;;-1.70;99.90;;;;;;5033981;28;20207;-64
2023/01/18 05:33:06;;;;;;;10.23;9.50;;;-1.70;99.90;;;;;;5030372;28;20207;-64
2023/01/18 05:35:31;;;;;;;11.93;11.20;;;-1.70;99.90;;;;;;5005740;28;20181;-64
2023/01/18 05:37:57;;;;;;;17.00;13.37;;;-1.70;99.90;;;;;;5014265;28;20284;-64
2023/01/18 05:40:23;;;;;;;14.80;13.30;;;-1.80;99.90;;;;;;5033538;28;20172;-63
2023/01/18 05:42:48;;;;;;;12.00;11.20;;;-1.80;99.90;;;;;;5033344;28;20211;-64
2023/01/18 05:45:15;;;;;;;11.90;10.70;;;-1.80;99.90;;;;;;5014189;28;20245;-63
2023/01/18 05:47:40;;;;;;;9.53;8.83;;;-1.90;99.90;;;;;;5014234;28;20180;-64
2023/01/18 05:50:07;;;;;;;11.27;10.57;;;-1.90;99.90;;;;;;5032019;28;20522;-64
2023/01/18 05:52:33;;;;;;;10.17;9.57;;;-1.90;99.90;;;;;;5033873;28;20196;-63
2023/01/18 05:54:59;;;;;;;14.00;12.97;;;-1.90;99.90;;;;;;5016706;28;20191;-64
2023/01/18 05:57:24;;;;;;;10.93;10.33;;;-1.90;99.90;;;;;;5014056;28;20176;-63
2023/01/18 05:59:50;;;;;;;10.73;10.03;;;-1.90;99.90;;;;;;5013827;28;20674;-63
2023/01/18 06:02:17;;;;;;;9.97;9.43;;;-1.90;99.90;;;;;;5013985;28;20196;-64
2023/01/18 06:04:43;;;;;;;8.30;7.90;;;-2.00;99.90;;;;;;5027513;28;20183;-64
2023/01/18 06:07:09;;;;;;;15.07;9.53;;;-2.00;99.90;;;;;;5033669;28;20183;-64
2023/01/18 06:09:34;;;;;;;10.30;9.87;;;-2.00;99.90;;;;;;5020798;28;20296;-63
2023/01/18 06:12:00;;;;;;;10.17;9.60;;;-2.20;99.90;;;;;;5013477;28;20279;-64
2023/01/18 06:14:26;;;;;;;8.87;8.47;;;-2.00;99.90;;;;;;5013614;28;20176;-64
2023/01/18 06:16:51;;;;;;;9.67;9.17;;;-2.00;99.90;;;;;;5013629;28;20188;-64
2023/01/18 06:19:17;;;;;;;9.13;8.73;;;-1.90;99.90;;;;;;5021840;28;20180;-64
2023/01/18 06:21:43;;;;;;;17.60;10.40;;;-1.90;99.90;;;;;;5033239;28;20183;-64
2023/01/18 06:24:08;;;;;;;9.80;9.30;;;-1.90;99.90;;;;;;5026102;28;20211;-65
2023/01/18 06:26:34;;;;;;;13.33;12.13;;;-1.90;99.90;;;;;;5013489;28;20262;-64
2023/01/18 06:29:00;;;;;;;11.47;10.63;;;-1.90;99.90;;;;;;5013692;28;20204;-64
2023/01/18 06:31:25;;;;;;;9.90;9.20;;;-1.90;99.90;;;;;;5022877;28;20597;-63
2023/01/18 06:33:51;;;;;;;10.43;9.57;;;-2.00;99.90;;;;;;5013214;28;20693;-64
2023/01/18 06:36:16;;;;;;;9.73;9.10;;;-2.00;99.90;;;;;;5013394;28;20177;-64
2023/01/18 06:38:42;;;;;;;10.77;10.07;;;-2.00;99.90;;;;;;5013852;28;20179;-64
2023/01/18 06:41:08;;;;;;;9.33;8.83;;;-2.00;99.90;;;;;;5032718;28;20229;-64
2023/01/18 06:43:33;;;;;;;8.73;8.33;;;-2.00;99.90;;;;;;5032867;28;20292;-64
2023/01/18 06:45:59;;;;;;;9.80;9.07;;;-2.10;99.90;;;;;;5032010;28;20190;-64
2023/01/18 06:48:26;;;;;;;8.87;8.37;;;-2.10;99.90;;;;;;5032512;28;20183;-63
2023/01/18 06:50:54;;;;;;;9.63;8.97;;;-2.10;99.90;;;;;;5032077;28;20230;-64
2023/01/18 06:53:21;;;;;;;9.57;7.90;;;-2.10;99.90;;;;;;5032709;28;20203;-64
2023/01/18 06:55:57;;;;;;;9.17;8.67;;;-2.10;99.90;;;;;;5016485;28;20191;-64
2023/01/18 06:58:24;;;;;;;9.80;9.03;;;-2.10;99.90;;;;;;5024921;28;20521;-64
2023/01/18 07:00:54;;;;;;;8.60;8.20;;;-2.20;99.90;;;;;;5033268;28;20245;-64
2023/01/18 07:03:20;;;;;;;8.63;8.13;;;-2.20;99.90;;;;;;5019650;28;20602;-64
2023/01/18 07:05:46;;;;;;;10.60;9.57;;;-2.20;99.90;;;;;;5012839;28;20200;-64
2023/01/18 07:08:12;;;;;;;9.40;8.97;;;-2.20;99.90;;;;;;5012788;28;20179;-64
2023/01/18 07:10:38;;;;;;;8.60;7.90;;;-2.30;99.90;;;;;;5012372;28;20211;-64
2023/01/18 07:13:03;;;;;;;8.90;8.13;;;-2.30;99.90;;;;;;5025523;28;20203;-64
2023/01/18 07:15:29;;;;;;;10.70;9.77;;;-2.40;99.90;;;;;;5032442;28;20183;-64
2023/01/18 07:17:54;;;;;;;10.27;9.30;;;-2.40;99.90;;;;;;5020505;28;20255;-63
2023/01/18 07:20:20;;;;;;;9.90;9.07;;;-2.50;99.90;;;;;;5012391;28;20191;-64
2023/01/18 07:22:50;;;;;;;9.83;9.10;;;-2.50;99.90;;;;;;5016011;28;20269;-64
2023/01/18 07:25:17;;;;;;;9.03;8.63;;;-2.60;99.90;;;;;;5015863;28;20183;-64
2023/01/18 07:27:43;;;;;;;9.00;8.40;;;-2.60;99.90;;;;;;5032081;28;20172;-64
2023/01/18 07:30:13;;;;;;;10.93;8.70;;;-2.70;99.90;;;;;;5023630;28;20210;-63
2023/01/18 07:32:39;;;;;;;11.33;10.43;;;-2.70;99.90;;;;;;5012039;28;20200;-64
2023/01/18 07:35:05;;;;;;;12.60;9.77;;;-2.70;99.90;;;;;;5012359;28;20176;-64
2023/01/18 07:37:33;;;;;;;9.10;8.50;;;-2.70;99.90;;;;;;5012119;28;20650;-64
2023/01/18 07:39:58;;;;;;;9.17;8.57;;;-2.70;99.90;;;;;;5012718;28;20199;-64
2023/01/18 07:42:24;;;;;;;9.33;8.57;;;-2.70;99.90;;;;;;5012436;28;20208;-64
2023/01/18 07:44:49;;;;;;;9.27;8.53;;;-2.80;99.90;;;;;;5013013;28;20180;-64
2023/01/18 07:47:15;;;;;;;12.53;11.07;;;-2.70;99.90;;;;;;5012063;28;20184;-63
2023/01/18 07:49:41;;;;;;;11.00;9.93;;;-2.70;99.90;;;;;;5023857;28;20218;-63
2023/01/18 07:52:06;;;;;;;9.50;8.90;;;-2.70;99.90;;;;;;5031850;28;20187;-63
2023/01/18 07:54:32;;;;;;;10.30;9.47;;;-2.70;99.90;;;;;;5030357;28;20253;-62
2023/01/18 07:56:58;;;;;;;11.03;10.27;;;-2.60;99.90;;;;;;5032623;28;20246;-63
2023/01/18 07:59:24;;;;;;;9.87;8.87;;;-2.60;99.90;;;;;;5019744;28;20179;-63
2023/01/18 08:01:49;;;;;;;10.53;9.73;;;-2.60;99.90;;;;;;5012021;28;20176;-64
2023/01/18 08:04:15;;;;;;;8.93;8.53;;;-2.50;99.90;;;;;;5021586;28;20673;-64
2023/01/18 08:06:40;;;;;;;10.93;9.97;;;-2.40;99.90;;;;;;5031529;28;20199;-63
2023/01/18 08:09:06;;;;;;;23.10;10.57;;;-2.40;99.90;;;;;;5028189;28;20198;-63
2023/01/18 08:11:32;;;;;;;8.87;8.37;;;-2.40;99.90;;;;;;5031229;28;20589;-64
2023/01/18 08:13:57;;;;;;;8.00;7.60;;;-2.30;99.90;;;;;;5024222;28;20227;-64
2023/01/18 08:16:23;;;;;;;9.77;9.20;;;-2.30;99.90;;;;;;5011566;28;20263;-64
2023/01/18 08:18:49;;;;;;;9.63;9.13;;;-2.30;99.90;;;;;;5016225;28;20179;-64
2023/01/18 08:21:15;;;;;;;9.37;8.80;;;-2.20;99.90;;;;;;5028637;28;20756;-64
2023/01/18 08:23:40;;;;;;;12.80;11.90;;;-2.20;99.90;;;;;;5011264;28;20188;-63
2023/01/18 08:26:07;;;;;;;10.87;10.10;;;-2.10;99.90;;;;;;5012207;28;20229;-64
2023/01/18 08:28:33;;;;;;;14.00;11.33;;;-2.00;99.90;;;;;;5031283;28;20241;-64
2023/01/18 08:31:14;;;;;;;11.47;10.67;;;-2.00;99.90;;;;;;5011537;28;20176;-64
2023/01/18 08:33:44;;;;;;;13.17;11.93;;;-2.00;99.90;;;;;;4991550;28;20207;-64
2023/01/18 08:36:15;;;;;;;10.40;9.90;;;-1.90;99.90;;;;;;4992530;28;20180;-64
2023/01/18 08:38:41;;;;;;;12.40;11.30;;;-1.90;99.90;;;;;;5030879;28;20171;-64
2023/01/18 08:41:07;;;;;;;15.03;10.57;;;-1.80;99.90;;;;;;5030762;28;20551;-64
2023/01/18 08:43:33;;;;;;;10.67;10.00;;;-1.80;99.90;;;;;;5010691;28;20232;-64
2023/01/18 08:45:59;;;;;;;10.07;9.47;;;-1.70;99.90;;;;;;5010098;28;20176;-64
2023/01/18 08:48:25;;;;;;;18.47;10.77;;;-1.60;99.90;;;;;;5028764;28;20185;-63
2023/01/18 08:50:50;;;;;;;10.43;9.77;;;-1.60;99.90;;;;;;5015766;28;20188;-64
2023/01/18 08:53:16;;;;;;;10.60;9.63;;;-1.50;99.90;;;;;;5014109;28;20195;-64
2023/01/18 08:55:41;;;;;;;10.83;9.80;;;-1.30;99.90;;;;;;5027803;28;20238;-64
2023/01/18 08:58:07;;;;;;;10.67;9.70;;;-1.10;99.90;;;;;;5035010;28;20160;-64
2023/01/18 09:00:33;;;;;;;12.83;9.03;;;-1.00;99.90;;;;;;5032657;28;20211;-64
2023/01/18 09:03:01;;;;;;;12.80;9.70;;;-0.80;99.90;;;;;;5034777;28;20691;-64
2023/01/18 09:05:27;;;;;;;9.13;8.33;;;-0.70;99.90;;;;;;5024540;28;20184;-64
2023/01/18 09:07:53;;;;;;;10.63;9.83;;;-0.60;99.90;;;;;;5015047;28;20168;-64
2023/01/18 09:10:20;;;;;;;11.03;9.90;;;-0.40;99.90;;;;;;5022289;28;20242;-64
2023/01/18 09:12:46;;;;;;;8.73;8.03;;;-0.10;99.90;;;;;;5028412;28;20196;-64
2023/01/18 09:15:12;;;;;;;14.83;11.13;;;0.10;99.90;;;;;;5014746;28;20168;-64
2023/01/18 09:17:38;;;;;;;11.57;10.60;;;0.20;99.90;;;;;;5019052;28;20513;-64
2023/01/18 09:20:09;;;;;;;21.33;9.93;;;0.40;99.90;;;;;;5034099;28;20198;-64
2023/01/18 09:22:35;;;;;;;20.13;10.70;;;0.60;99.90;;;;;;5016650;28;20196;-64
2023/01/18 09:25:01;;;;;;;8.27;7.67;;;0.80;99.90;;;;;;5014798;28;20203;-64
2023/01/18 09:27:27;;;;;;;11.77;9.23;;;1.10;99.90;;;;;;5030238;28;20191;-64
2023/01/18 09:29:52;;;;;;;10.93;9.87;;;1.40;99.90;;;;;;5034026;28;20206;-64
2023/01/18 09:32:19;;;;;;;19.10;10.73;;;1.70;99.90;;;;;;5019970;28;20204;-64
2023/01/18 09:34:48;;;;;;;12.07;11.13;;;2.00;99.90;;;;;;5014382;28;20222;-64
2023/01/18 09:37:13;;;;;;;9.97;9.20;;;2.50;99.90;;;;;;5027354;28;20182;-64
2023/01/18 09:39:39;;;;;;;13.40;12.10;;;2.80;99.90;;;;;;5015370;28;20176;-64
2023/01/18 09:42:17;;;;;;;11.17;10.23;;;3.00;99.90;;;;;;5023825;28;20219;-64
2023/01/18 09:44:44;;;;;;;12.43;11.40;;;3.10;99.90;;;;;;5034089;28;20589;-64
2023/01/18 09:47:22;;;;;;;13.67;9.60;;;3.20;99.90;;;;;;5016947;28;20188;-64
2023/01/18 09:50:01;;;;;;;12.03;11.03;;;3.40;99.90;;;;;;5013876;28;20678;-64
2023/01/18 09:52:56;;;;;;;11.13;10.23;;;3.30;99.90;;;;;;5032695;28;20234;-64
2023/01/18 09:55:40;;;;;;;10.67;9.97;;;3.30;99.90;;;;;;5032794;28;20263;-64
2023/01/18 09:58:28;;;;;;;10.23;9.43;;;3.10;99.90;;;;;;5014155;28;20670;-64
2023/01/18 10:01:01;;;;;;;11.67;10.47;;;2.90;99.90;;;;;;5018415;28;20233;-64
2023/01/18 10:03:44;;;;;;;10.80;9.70;;;2.80;99.90;;;;;;5032654;28;20583;-64
2023/01/18 10:06:25;;;;;;;8.60;7.80;;;2.80;99.90;;;;;;5026909;28;20541;-64
2023/01/18 10:08:52;;;;;;;11.60;9.97;;;2.80;99.90;;;;;;5014121;28;20254;-63
2023/01/18 10:11:30;;;;;;;9.50;8.70;;;2.80;99.90;;;;;;5012357;28;20168;-64
2023/01/18 10:14:27;;;;;;;9.37;8.73;;;2.80;99.90;;;;;;5020069;28;20233;-64
2023/01/18 10:16:59;;;;;;;10.23;9.43;;;2.70;99.90;;;;;;5024312;28;20183;-64
2023/01/18 10:19:28;;;;;;;12.03;10.20;;;2.70;99.90;;;;;;5023195;28;20239;-63
2023/01/18 10:22:19;;;;;;;13.10;11.90;;;2.60;99.90;;;;;;5013619;28;20746;-64
2023/01/18 10:25:34;;;;;;;10.10;9.30;;;2.70;99.90;;;;;;5019656;28;20183;-64
2023/01/18 10:28:50;;;;;;;19.10;9.30;;;2.80;99.90;;;;;;4991410;28;20198;-64
2023/01/18 10:31:39;;;;;;;8.63;7.93;;;2.90;99.90;;;;;;4966771;28;20316;-64
2023/01/18 10:34:28;;;;;;;11.37;10.13;;;3.00;99.90;;;;;;5013407;28;20195;-64
2023/01/18 10:37:01;;;;;;;10.97;10.10;;;3.00;99.90;;;;;;5022687;28;20283;-64
2023/01/18 10:39:38;;;;;;;9.80;9.17;;;3.20;99.90;;;;;;5015015;28;20505;-64
2023/01/18 10:42:16;;;;;;;15.17;13.67;;;3.10;99.90;;;;;;5013160;28;20203;-64
2023/01/18 10:44:41;;;;;;;13.53;12.23;;;3.20;99.90;;;;;;5011098;28;20677;-64
2023/01/18 10:47:07;;;;;;;12.57;11.47;;;3.20;99.90;;;;;;5026763;28;20183;-64
2023/01/18 10:49:36;;;;;;;10.60;9.73;;;3.20;99.90;;;;;;5031704;28;20219;-64
2023/01/18 10:52:29;;;;;;;9.33;8.80;;;3.30;99.90;;;;;;5020346;28;20255;-64
2023/01/18 10:55:08;;;;;;;9.77;9.00;;;3.10;99.90;;;;;;5012508;28;20562;-64
2023/01/18 10:58:01;;;;;;;8.90;8.30;;;3.10;99.90;;;;;;5031591;28;20172;-64
2023/01/18 11:00:32;;;;;;;11.33;10.47;;;3.10;99.90;;;;;;5028483;28;20283;-65
2023/01/18 11:03:01;;;;;;;10.43;9.43;;;3.10;99.90;;;;;;5032806;28;20196;-64
2023/01/18 11:05:36;;;;;;;11.43;10.60;;;3.20;99.90;;;;;;5028635;28;20187;-64
2023/01/18 11:08:12;;;;;;;9.60;8.90;;;3.30;99.90;;;;;;5012927;28;20677;-65
2023/01/18 11:10:40;;;;;;;12.13;11.10;;;3.40;99.90;;;;;;5017252;28;20199;-64
2023/01/18 11:13:33;;;;;;;10.60;9.87;;;3.30;99.90;;;;;;5041211;28;20195;-64
2023/01/18 11:16:27;;;;;;;9.93;9.10;;;3.40;99.90;;;;;;5026426;28;20176;-64
2023/01/18 11:18:56;;;;;;;9.90;8.97;;;3.60;99.90;;;;;;5011793;28;20220;-64
2023/01/18 11:21:22;;;;;;;10.40;9.43;;;3.70;99.90;;;;;;5029762;28;20187;-64
2023/01/18 11:23:50;;;;;;;10.37;9.23;;;3.90;99.90;;;;;;5024404;28;20191;-64
2023/01/18 11:26:18;;;;;;;9.87;9.03;;;4.00;99.90;;;;;;5029017;28;20237;-64
2023/01/18 11:28:50;;;;;;;9.30;8.60;;;4.40;99.90;;;;;;5025555;28;20239;-64
2023/01/18 11:31:24;;;;;;;12.97;8.63;;;4.60;99.90;;;;;;5012313;28;20173;-64
2023/01/18 11:33:55;;;;;;;11.47;9.90;;;5.00;99.90;;;;;;5018895;28;20236;-64
2023/01/18 11:36:36;;;;;;;9.57;8.87;;;5.30;99.90;;;;;;5032041;28;20483;-64
2023/01/18 11:39:26;;;;;;;9.77;8.77;;;5.60;99.90;;;;;;5024140;28;20188;-64
2023/01/18 11:42:23;;;;;;;10.47;9.17;;;6.00;99.90;;;;;;5011981;28;20216;-64
2023/01/18 11:45:11;;;;;;;9.40;8.57;;;6.00;99.90;;;;;;5025508;28;20197;-64
2023/01/18 11:48:12;;;;;;;11.03;9.73;;;6.40;99.90;;;;;;5031896;28;20186;-64
2023/01/18 11:50:55;;;;;;;12.67;8.87;;;6.60;99.90;;;;;;5009164;28;20211;-64
2023/01/18 11:53:40;;;;;;;13.67;10.97;;;6.90;99.90;;;;;;5005526;28;20202;-64
2023/01/18 11:56:10;;;;;;;9.67;8.87;;;7.20;99.90;;;;;;5030949;28;20255;-64
2023/01/18 11:58:36;;;;;;;8.77;8.07;;;7.60;99.90;;;;;;5010724;28;20226;-64
2023/01/18 12:01:55;;;;;;;9.43;8.43;;;7.80;99.90;;;;;;5011761;28;20191;-64
2023/01/18 12:05:09;;;;;;;9.07;8.27;;;8.20;99.90;;;;;;4970131;28;20174;-65
2023/01/18 12:08:02;;;;;;;7.67;7.03;;;8.40;99.90;;;;;;4976378;28;20192;-64
2023/01/18 12:10:40;;;;;;;9.20;7.27;;;8.50;99.90;;;;;;5031150;28;20270;-64
2023/01/18 12:13:25;;;;;;;8.80;8.00;;;8.30;99.90;;;;;;5015748;28;20200;-64
2023/01/18 12:16:08;;;;;;;7.47;6.87;;;8.10;99.90;;;;;;5011946;28;20180;-64
2023/01/18 12:18:56;;;;;;;9.70;7.63;;;8.00;99.90;;;;;;5030368;28;20546;-64
2023/01/18 12:21:48;;;;;;;13.77;8.67;;;8.00;99.90;;;;;;5030571;28;20171;-64
2023/01/18 12:24:46;;;;;;;8.43;6.83;;;8.10;99.90;;;;;;4991980;28;20169;-64
2023/01/18 12:27:35;;;;;;;7.30;6.70;;;7.90;99.90;;;;;;5004964;28;20172;-64
2023/01/18 12:30:42;;;;;;;7.53;6.87;;;7.60;99.90;;;;;;5030660;28;20226;-64
2023/01/18 12:33:36;;;;;;;8.00;6.67;;;7.70;99.90;;;;;;5000682;28;20704;-64
2023/01/18 12:36:23;;;;;;;7.97;6.73;;;7.70;99.90;;;;;;5026613;28;20187;-64
2023/01/18 12:38:51;;;;;;;6.90;6.40;;;7.80;99.90;;;;;;5031088;28;20175;-64
2023/01/18 12:41:31;;;;;;;7.57;6.90;;;7.90;99.90;;;;;;5014072;28;20180;-64
2023/01/18 12:44:28;;;;;;;7.27;6.57;;;8.20;99.90;;;;;;5010516;28;20208;-64
2023/01/18 12:46:59;;;;;;;6.20;5.80;;;8.50;99.90;;;;;;4992094;28;20260;-65
2023/01/18 12:49:28;;;;;;;8.07;7.33;;;8.60;99.90;;;;;;4993060;28;20211;-64
2023/01/18 12:52:01;;;;;;;6.57;5.83;;;8.60;99.90;;;;;;5031322;28;20641;-64
2023/01/18 12:54:41;;;;;;;10.23;6.13;;;8.50;99.90;;;;;;5010830;28;20176;-64
2023/01/18 12:57:07;;;;;;;7.47;6.70;;;8.40;99.90;;;;;;5011352;28;20258;-64
2023/01/18 12:59:51;;;;;;;7.20;6.33;;;8.40;99.90;;;;;;5011190;28;20259;-64
2023/01/18 13:02:34;;;;;;;7.73;6.93;;;8.40;99.90;;;;;;5011477;28;20674;-64
2023/01/18 13:05:36;;;;;;;6.67;6.20;;;8.30;99.90;;;;;;4991939;28;20180;-64
2023/01/18 13:08:18;;;;;;;6.67;6.07;;;8.30;99.90;;;;;;5027588;28;20244;-64
2023/01/18 13:10:44;;;;;;;6.77;6.10;;;7.70;99.90;;;;;;5026687;28;20192;-64
2023/01/18 13:13:17;;;;;;;8.10;7.40;;;7.30;99.90;;;;;;5011390;28;20199;-64
2023/01/18 13:16:08;;;;;;;8.37;7.00;;;7.00;99.90;;;;;;5013930;28;20190;-64
2023/01/18 13:19:02;;;;;;;6.53;5.50;;;6.80;99.90;;;;;;5030916;28;20185;-64
2023/01/18 13:22:10;;;;;;;6.00;5.60;;;6.60;99.90;;;;;;4991454;28;20192;-64
2023/01/18 13:24:47;;;;;;;5.97;5.50;;;6.50;99.90;;;;;;4999669;28;20251;-64
2023/01/18 13:27:15;;;;;;;6.20;5.70;;;6.50;99.90;;;;;;5009276;28;20176;-64
2023/01/18 13:29:42;;;;;;;6.53;6.13;;;6.50;99.90;;;;;;5010949;28;20192;-64
2023/01/18 13:32:32;;;;;;;6.30;5.90;;;6.40;99.90;;;;;;5011160;28;20212;-64
2023/01/18 13:35:27;;;;;;;5.60;5.20;;;6.20;99.90;;;;;;5020343;28;20230;-64
2023/01/18 13:37:59;;;;;;;9.30;7.87;;;6.30;99.90;;;;;;5031314;28;20174;-64
2023/01/18 13:40:51;;;;;;;6.27;5.73;;;6.20;99.90;;;;;;5016922;28;20260;-64